DLH5DK EDDM-LCPH
Flight info
| Callsign | DLH5DK |
|---|---|
| Flight time | 3h 10m |
| Altitude | 37000 |
| Route | VAVOR3S VAVOR M867 RADIZ DCT REKTI DCT NEMEK DCT ELTIB DCT GACMO DCT MAVAR DCT BITLA DCT USINI UL995 RDS DCT TOSKA DCT TOBAL TOBAL1T |
| Aircraft | A320/M-SDE2E3FGIJ1LORWXYZ/HB1 |
Departure
| Time | 2026-04-16 09:45 |
|---|---|
| Airport | Munich Airport (EDDM) |
Arrival
| Time | 2026-04-16 12:55 |
|---|---|
| Airport | Paphos International Airport (LCPH) |
| Time | Latitude | Longitude | Altitude | Speed | Heading |
|---|---|---|---|---|---|
| 2026-04-16 09:17 | 48.35058 | 11.79381 | 1476 ft | 0 kts | 263° |
| 2026-04-16 09:36 | 48.35059 | 11.79391 | 1471 ft | 2 kts | 263° |
| 2026-04-16 09:36 | 48.35062 | 11.79421 | 1482 ft | 3 kts | 263° |
| 2026-04-16 09:37 | 48.35064 | 11.79452 | 1480 ft | 3 kts | 263° |
| 2026-04-16 09:37 | 48.35066 | 11.79482 | 1474 ft | 3 kts | 263° |
| 2026-04-16 09:37 | 48.35068 | 11.79502 | 1476 ft | 3 kts | 263° |
| 2026-04-16 09:37 | 48.35070 | 11.79532 | 1471 ft | 3 kts | 263° |
| 2026-04-16 09:38 | 48.35072 | 11.79562 | 1472 ft | 3 kts | 265° |
| 2026-04-16 09:38 | 48.35073 | 11.79592 | 1477 ft | 3 kts | 275° |
| 2026-04-16 09:38 | 48.35071 | 11.79621 | 1485 ft | 2 kts | 265° |
| 2026-04-16 09:38 | 48.35072 | 11.79637 | 1471 ft | 2 kts | 256° |
| 2026-04-16 09:39 | 48.35076 | 11.79654 | 1480 ft | 3 kts | 187° |
| 2026-04-16 09:39 | 48.35093 | 11.79653 | 1475 ft | 2 kts | 173° |
| 2026-04-16 09:39 | 48.35105 | 11.79650 | 1477 ft | 3 kts | 173° |
| 2026-04-16 09:39 | 48.35114 | 11.79649 | 1477 ft | 0 kts | 173° |
| 2026-04-16 09:41 | 48.35109 | 11.79650 | 1477 ft | 3 kts | 173° |
| 2026-04-16 09:41 | 48.35053 | 11.79659 | 1480 ft | 13 kts | 173° |
| 2026-04-16 09:42 | 48.34943 | 11.79678 | 1484 ft | 17 kts | 173° |
| 2026-04-16 09:42 | 48.34826 | 11.79706 | 1477 ft | 17 kts | 151° |
| 2026-04-16 09:42 | 48.34814 | 11.79855 | 1480 ft | 14 kts | 83° |
| 2026-04-16 09:42 | 48.34827 | 11.80015 | 1480 ft | 18 kts | 83° |
| 2026-04-16 09:43 | 48.34796 | 11.80191 | 1479 ft | 17 kts | 128° |
| 2026-04-16 09:43 | 48.34699 | 11.80248 | 1485 ft | 14 kts | 173° |
| 2026-04-16 09:43 | 48.34606 | 11.80264 | 1481 ft | 12 kts | 173° |
| 2026-04-16 09:43 | 48.34517 | 11.80277 | 1473 ft | 15 kts | 184° |
| 2026-04-16 09:44 | 48.34457 | 11.80155 | 1483 ft | 16 kts | 263° |
| 2026-04-16 09:44 | 48.34437 | 11.79895 | 1479 ft | 50 kts | 263° |
| 2026-04-16 09:44 | 48.34371 | 11.79035 | 1486 ft | 112 kts | 263° |
| 2026-04-16 09:44 | 48.34261 | 11.77615 | 1478 ft | 159 kts | 263° |
| 2026-04-16 09:45 | 48.34121 | 11.75867 | 1982 ft | 167 kts | 264° |
| 2026-04-16 09:45 | 48.33988 | 11.74148 | 2812 ft | 167 kts | 264° |
| 2026-04-16 09:45 | 48.33746 | 11.72366 | 3207 ft | 186 kts | 244° |
| 2026-04-16 09:45 | 48.32725 | 11.71017 | 3517 ft | 213 kts | 198° |
| 2026-04-16 09:46 | 48.31216 | 11.70773 | 4162 ft | 222 kts | 185° |
| 2026-04-16 09:46 | 48.29659 | 11.70769 | 4940 ft | 227 kts | 176° |
| 2026-04-16 09:46 | 48.28116 | 11.71434 | 5616 ft | 240 kts | 155° |
| 2026-04-16 09:46 | 48.26637 | 11.72864 | 5976 ft | 265 kts | 146° |
| 2026-04-16 09:47 | 48.25069 | 11.74490 | 6512 ft | 279 kts | 146° |
| 2026-04-16 09:47 | 48.23459 | 11.76151 | 7321 ft | 282 kts | 146° |
| 2026-04-16 09:47 | 48.21824 | 11.77824 | 8097 ft | 287 kts | 147° |
| 2026-04-16 09:47 | 48.20157 | 11.79519 | 8851 ft | 292 kts | 147° |
| 2026-04-16 09:48 | 48.18481 | 11.81267 | 9674 ft | 295 kts | 142° |
| 2026-04-16 09:48 | 48.17006 | 11.83495 | 10430 ft | 301 kts | 130° |
| 2026-04-16 09:48 | 48.15651 | 11.85963 | 10710 ft | 322 kts | 130° |
| 2026-04-16 09:48 | 48.14178 | 11.88649 | 10965 ft | 343 kts | 130° |
| 2026-04-16 09:49 | 48.12630 | 11.91472 | 11584 ft | 349 kts | 130° |
| 2026-04-16 09:49 | 48.11081 | 11.94290 | 12276 ft | 353 kts | 130° |
| 2026-04-16 09:49 | 48.09529 | 11.97107 | 12910 ft | 358 kts | 130° |
| 2026-04-16 09:49 | 48.07902 | 12.00020 | 13610 ft | 362 kts | 133° |
| 2026-04-16 09:50 | 48.06064 | 12.02544 | 14191 ft | 367 kts | 144° |
| 2026-04-16 09:50 | 48.03955 | 12.04718 | 14777 ft | 370 kts | 147° |
| 2026-04-16 09:50 | 48.01820 | 12.06887 | 15373 ft | 373 kts | 147° |
| 2026-04-16 09:50 | 47.99667 | 12.09077 | 15970 ft | 376 kts | 147° |
| 2026-04-16 09:51 | 47.97498 | 12.11286 | 16568 ft | 379 kts | 147° |
| 2026-04-16 09:51 | 47.95311 | 12.13511 | 17140 ft | 383 kts | 147° |
| 2026-04-16 09:51 | 47.93126 | 12.15811 | 17726 ft | 387 kts | 142° |
| 2026-04-16 09:51 | 47.91062 | 12.18416 | 18285 ft | 391 kts | 141° |
| 2026-04-16 09:52 | 47.88983 | 12.21046 | 18801 ft | 394 kts | 141° |
| 2026-04-16 09:52 | 47.86879 | 12.23694 | 19275 ft | 397 kts | 141° |
| 2026-04-16 09:52 | 47.84755 | 12.26357 | 19768 ft | 401 kts | 141° |
| 2026-04-16 09:52 | 47.82615 | 12.29035 | 20247 ft | 404 kts | 141° |
| 2026-04-16 09:53 | 47.80457 | 12.31735 | 20741 ft | 407 kts | 141° |
| 2026-04-16 09:53 | 47.78281 | 12.34454 | 21201 ft | 410 kts | 141° |
| 2026-04-16 09:53 | 47.76090 | 12.37185 | 21652 ft | 413 kts | 141° |
| 2026-04-16 09:53 | 47.73844 | 12.39984 | 22137 ft | 416 kts | 141° |
| 2026-04-16 09:54 | 47.71656 | 12.42712 | 22603 ft | 419 kts | 141° |
| 2026-04-16 09:54 | 47.69413 | 12.45498 | 23051 ft | 422 kts | 141° |
| 2026-04-16 09:54 | 47.67154 | 12.48291 | 23485 ft | 425 kts | 141° |
| 2026-04-16 09:54 | 47.64873 | 12.51101 | 23901 ft | 428 kts | 142° |
| 2026-04-16 09:55 | 47.62576 | 12.53926 | 24262 ft | 430 kts | 141° |
| 2026-04-16 09:55 | 47.60296 | 12.56816 | 24630 ft | 433 kts | 140° |
| 2026-04-16 09:55 | 47.58044 | 12.59795 | 25004 ft | 435 kts | 139° |
| 2026-04-16 09:55 | 47.55807 | 12.62827 | 25366 ft | 437 kts | 139° |
| 2026-04-16 09:56 | 47.53569 | 12.65888 | 25743 ft | 439 kts | 139° |
| 2026-04-16 09:56 | 47.51323 | 12.68949 | 26087 ft | 440 kts | 139° |
| 2026-04-16 09:56 | 47.49058 | 12.72006 | 26444 ft | 442 kts | 139° |
| 2026-04-16 09:56 | 47.46773 | 12.75058 | 26799 ft | 443 kts | 140° |
| 2026-04-16 09:57 | 47.44472 | 12.78109 | 27136 ft | 445 kts | 140° |
| 2026-04-16 09:57 | 47.42158 | 12.81164 | 27471 ft | 447 kts | 140° |
| 2026-04-16 09:57 | 47.39832 | 12.84231 | 27797 ft | 449 kts | 140° |
| 2026-04-16 09:57 | 47.37496 | 12.87314 | 28139 ft | 451 kts | 140° |
| 2026-04-16 09:58 | 47.35155 | 12.90407 | 28482 ft | 453 kts | 140° |
| 2026-04-16 09:58 | 47.32803 | 12.93518 | 28809 ft | 455 kts | 140° |
| 2026-04-16 09:58 | 47.30440 | 12.96642 | 29110 ft | 457 kts | 140° |
| 2026-04-16 09:58 | 47.28068 | 12.99773 | 29432 ft | 459 kts | 140° |
| 2026-04-16 09:59 | 47.25685 | 13.02910 | 29726 ft | 460 kts | 140° |
| 2026-04-16 09:59 | 47.23297 | 13.06048 | 30041 ft | 461 kts | 140° |
| 2026-04-16 09:59 | 47.20898 | 13.09192 | 30309 ft | 463 kts | 140° |
| 2026-04-16 09:59 | 47.18487 | 13.12345 | 30543 ft | 465 kts | 140° |
| 2026-04-16 10:00 | 47.16066 | 13.15508 | 30784 ft | 466 kts | 140° |
| 2026-04-16 10:00 | 47.13639 | 13.18677 | 31019 ft | 468 kts | 140° |
| 2026-04-16 10:00 | 47.11235 | 13.21816 | 31288 ft | 468 kts | 140° |
| 2026-04-16 10:01 | 47.06378 | 13.28145 | 31985 ft | 466 kts | 140° |
| 2026-04-16 10:01 | 47.03960 | 13.31295 | 32346 ft | 464 kts | 140° |
| 2026-04-16 10:01 | 47.01548 | 13.34434 | 32677 ft | 463 kts | 140° |
| 2026-04-16 10:01 | 46.99143 | 13.37560 | 33018 ft | 462 kts | 140° |
| 2026-04-16 10:02 | 46.96739 | 13.40678 | 33344 ft | 461 kts | 140° |
| 2026-04-16 10:02 | 46.94336 | 13.43783 | 33671 ft | 460 kts | 141° |
| 2026-04-16 10:02 | 46.91936 | 13.46877 | 33995 ft | 460 kts | 141° |
| 2026-04-16 10:02 | 46.89538 | 13.49966 | 34316 ft | 459 kts | 141° |
| 2026-04-16 10:03 | 46.87145 | 13.53048 | 34586 ft | 458 kts | 141° |
| 2026-04-16 10:03 | 46.84754 | 13.56126 | 34838 ft | 458 kts | 141° |
| 2026-04-16 10:03 | 46.82364 | 13.59202 | 35088 ft | 458 kts | 141° |
| 2026-04-16 10:03 | 46.79978 | 13.62270 | 35338 ft | 457 kts | 141° |
| 2026-04-16 10:04 | 46.77589 | 13.65337 | 35581 ft | 457 kts | 141° |
| 2026-04-16 10:04 | 46.75201 | 13.68398 | 35822 ft | 456 kts | 140° |
| 2026-04-16 10:04 | 46.72820 | 13.71447 | 36072 ft | 456 kts | 140° |
| 2026-04-16 10:04 | 46.70437 | 13.74491 | 36296 ft | 455 kts | 140° |
| 2026-04-16 10:05 | 46.68054 | 13.77527 | 36521 ft | 455 kts | 140° |
| 2026-04-16 10:05 | 46.65672 | 13.80560 | 36743 ft | 455 kts | 140° |
| 2026-04-16 10:05 | 46.63295 | 13.83587 | 36946 ft | 454 kts | 140° |
| 2026-04-16 10:05 | 46.60916 | 13.86611 | 37137 ft | 454 kts | 141° |
| 2026-04-16 10:06 | 46.56198 | 13.92714 | 37210 ft | 454 kts | 138° |
| 2026-04-16 10:06 | 46.51692 | 13.99123 | 37198 ft | 454 kts | 136° |
| 2026-04-16 10:07 | 46.47256 | 14.05624 | 37206 ft | 453 kts | 136° |
| 2026-04-16 10:07 | 46.42790 | 14.12041 | 37219 ft | 452 kts | 137° |
| 2026-04-16 10:08 | 46.38274 | 14.18385 | 37197 ft | 452 kts | 137° |
| 2026-04-16 10:08 | 46.33757 | 14.24701 | 37207 ft | 451 kts | 136° |
| 2026-04-16 10:09 | 46.29253 | 14.31002 | 37207 ft | 450 kts | 136° |
| 2026-04-16 10:09 | 46.24765 | 14.37304 | 37203 ft | 449 kts | 136° |
| 2026-04-16 10:10 | 46.20277 | 14.43588 | 37203 ft | 449 kts | 136° |
| 2026-04-16 10:10 | 46.15781 | 14.49846 | 37206 ft | 450 kts | 136° |
| 2026-04-16 10:11 | 46.11275 | 14.56105 | 37202 ft | 450 kts | 136° |
| 2026-04-16 10:11 | 46.06771 | 14.62350 | 37201 ft | 449 kts | 136° |
| 2026-04-16 10:12 | 46.02271 | 14.68597 | 37201 ft | 449 kts | 136° |
| 2026-04-16 10:12 | 45.97762 | 14.74824 | 37186 ft | 450 kts | 136° |
| 2026-04-16 10:13 | 45.93235 | 14.81052 | 37198 ft | 450 kts | 135° |
| 2026-04-16 10:13 | 45.88711 | 14.87264 | 37210 ft | 450 kts | 135° |
| 2026-04-16 10:14 | 45.84191 | 14.93459 | 37210 ft | 449 kts | 135° |
| 2026-04-16 10:14 | 45.79682 | 14.99641 | 37215 ft | 448 kts | 135° |
| 2026-04-16 10:15 | 45.75162 | 15.05802 | 37207 ft | 449 kts | 136° |
| 2026-04-16 10:15 | 45.70641 | 15.11951 | 37226 ft | 448 kts | 135° |
| 2026-04-16 10:16 | 45.66125 | 15.18082 | 37225 ft | 447 kts | 135° |
| 2026-04-16 10:16 | 45.61619 | 15.24188 | 37222 ft | 446 kts | 135° |
| 2026-04-16 10:17 | 45.57109 | 15.30274 | 37217 ft | 446 kts | 136° |
| 2026-04-16 10:17 | 45.52466 | 15.36149 | 37212 ft | 446 kts | 138° |
| 2026-04-16 10:18 | 45.47729 | 15.41843 | 37221 ft | 445 kts | 139° |
| 2026-04-16 10:18 | 45.43007 | 15.47527 | 37222 ft | 444 kts | 138° |
| 2026-04-16 10:19 | 45.38313 | 15.53244 | 37220 ft | 444 kts | 138° |
| 2026-04-16 10:19 | 45.34426 | 15.57996 | 37217 ft | 443 kts | 138° |
| 2026-04-16 10:20 | 45.29746 | 15.63706 | 37219 ft | 443 kts | 138° |
| 2026-04-16 10:20 | 45.25063 | 15.69391 | 37219 ft | 443 kts | 137° |
| 2026-04-16 10:21 | 45.20376 | 15.75058 | 37216 ft | 442 kts | 137° |
| 2026-04-16 10:21 | 45.15697 | 15.80709 | 37213 ft | 441 kts | 137° |
| 2026-04-16 10:22 | 45.11024 | 15.86341 | 37207 ft | 441 kts | 138° |
| 2026-04-16 10:22 | 45.06346 | 15.91965 | 37212 ft | 441 kts | 137° |
| 2026-04-16 10:23 | 45.01673 | 15.97577 | 37219 ft | 440 kts | 137° |
| 2026-04-16 10:23 | 44.97007 | 16.03167 | 37217 ft | 439 kts | 137° |
| 2026-04-16 10:24 | 44.92340 | 16.08733 | 37206 ft | 439 kts | 137° |
| 2026-04-16 10:24 | 44.87681 | 16.14291 | 37205 ft | 439 kts | 137° |
| 2026-04-16 10:25 | 44.83021 | 16.19847 | 37206 ft | 439 kts | 137° |
| 2026-04-16 10:25 | 44.78354 | 16.25376 | 37204 ft | 438 kts | 137° |
| 2026-04-16 10:26 | 44.73687 | 16.30898 | 37192 ft | 438 kts | 137° |
| 2026-04-16 10:26 | 44.69028 | 16.36409 | 37191 ft | 438 kts | 137° |
| 2026-04-16 10:27 | 44.64368 | 16.41912 | 37182 ft | 438 kts | 137° |
| 2026-04-16 10:27 | 44.59703 | 16.47400 | 37190 ft | 437 kts | 137° |
| 2026-04-16 10:28 | 44.55036 | 16.52863 | 37183 ft | 437 kts | 137° |
| 2026-04-16 10:28 | 44.50370 | 16.58325 | 37179 ft | 437 kts | 137° |
| 2026-04-16 10:29 | 44.45714 | 16.63780 | 37166 ft | 436 kts | 137° |
| 2026-04-16 10:29 | 44.41051 | 16.69218 | 37163 ft | 436 kts | 137° |
| 2026-04-16 10:30 | 44.36385 | 16.74643 | 37160 ft | 436 kts | 137° |
| 2026-04-16 10:30 | 44.31720 | 16.80058 | 37162 ft | 436 kts | 137° |
| 2026-04-16 10:31 | 44.27502 | 16.86061 | 37152 ft | 433 kts | 129° |
| 2026-04-16 10:31 | 44.23468 | 16.92301 | 37153 ft | 433 kts | 129° |
| 2026-04-16 10:32 | 44.19426 | 16.98525 | 37160 ft | 433 kts | 130° |
| 2026-04-16 10:32 | 44.15377 | 17.04740 | 37157 ft | 433 kts | 130° |
| 2026-04-16 10:33 | 44.11319 | 17.10949 | 37150 ft | 433 kts | 130° |
| 2026-04-16 10:33 | 44.07265 | 17.17147 | 37156 ft | 433 kts | 130° |
| 2026-04-16 10:34 | 44.03207 | 17.23348 | 37147 ft | 434 kts | 130° |
| 2026-04-16 10:34 | 43.99145 | 17.29544 | 37149 ft | 434 kts | 130° |
| 2026-04-16 10:35 | 43.95070 | 17.35739 | 37148 ft | 434 kts | 130° |
| 2026-04-16 10:35 | 43.90991 | 17.41922 | 37149 ft | 434 kts | 130° |
| 2026-04-16 10:36 | 43.86909 | 17.48100 | 37141 ft | 434 kts | 130° |
| 2026-04-16 10:36 | 43.82823 | 17.54266 | 37138 ft | 434 kts | 131° |
| 2026-04-16 10:37 | 43.78730 | 17.60426 | 37142 ft | 435 kts | 131° |
| 2026-04-16 10:37 | 43.74629 | 17.66594 | 37126 ft | 436 kts | 131° |
| 2026-04-16 10:38 | 43.70526 | 17.72758 | 37126 ft | 436 kts | 131° |
| 2026-04-16 10:38 | 43.66412 | 17.78919 | 37122 ft | 436 kts | 131° |
| 2026-04-16 10:39 | 43.62289 | 17.85074 | 37113 ft | 437 kts | 131° |
| 2026-04-16 10:39 | 43.58161 | 17.91227 | 37101 ft | 437 kts | 132° |
| 2026-04-16 10:40 | 43.54024 | 17.97373 | 37079 ft | 438 kts | 132° |
| 2026-04-16 10:40 | 43.49878 | 18.03521 | 37073 ft | 438 kts | 132° |
| 2026-04-16 10:41 | 43.45729 | 18.09666 | 37077 ft | 438 kts | 132° |
| 2026-04-16 10:41 | 43.41573 | 18.15806 | 37084 ft | 439 kts | 132° |
| 2026-04-16 10:42 | 43.37407 | 18.21942 | 37091 ft | 439 kts | 132° |
| 2026-04-16 10:42 | 43.33244 | 18.28074 | 37096 ft | 439 kts | 132° |
| 2026-04-16 10:43 | 43.29069 | 18.34195 | 37111 ft | 439 kts | 132° |
| 2026-04-16 10:43 | 43.24890 | 18.40306 | 37104 ft | 439 kts | 132° |
| 2026-04-16 10:44 | 43.20710 | 18.46418 | 37107 ft | 439 kts | 132° |
| 2026-04-16 10:44 | 43.16528 | 18.52531 | 37100 ft | 440 kts | 133° |
| 2026-04-16 10:45 | 43.12319 | 18.58604 | 37103 ft | 440 kts | 134° |
| 2026-04-16 10:45 | 43.08015 | 18.64560 | 37106 ft | 440 kts | 134° |
| 2026-04-16 10:46 | 43.03680 | 18.70479 | 37104 ft | 440 kts | 134° |
| 2026-04-16 10:46 | 42.99363 | 18.76408 | 37113 ft | 440 kts | 134° |
| 2026-04-16 10:47 | 42.95056 | 18.82330 | 37101 ft | 439 kts | 134° |
| 2026-04-16 10:47 | 42.90747 | 18.88248 | 37109 ft | 439 kts | 134° |
| 2026-04-16 10:48 | 42.86440 | 18.94159 | 37096 ft | 440 kts | 134° |
| 2026-04-16 10:48 | 42.82123 | 19.00065 | 37109 ft | 440 kts | 135° |
| 2026-04-16 10:49 | 42.77801 | 19.05948 | 37112 ft | 439 kts | 135° |
| 2026-04-16 10:49 | 42.73476 | 19.11826 | 37099 ft | 439 kts | 135° |
| 2026-04-16 10:50 | 42.69184 | 19.17660 | 37099 ft | 439 kts | 135° |
| 2026-04-16 10:50 | 42.64834 | 19.23564 | 37079 ft | 439 kts | 135° |
| 2026-04-16 10:51 | 42.60539 | 19.29378 | 37077 ft | 439 kts | 135° |
| 2026-04-16 10:51 | 42.56209 | 19.35215 | 37068 ft | 439 kts | 135° |
| 2026-04-16 10:52 | 42.51880 | 19.41049 | 37072 ft | 438 kts | 135° |
| 2026-04-16 10:52 | 42.47555 | 19.46867 | 37067 ft | 438 kts | 135° |
| 2026-04-16 10:53 | 42.43197 | 19.52704 | 37067 ft | 438 kts | 136° |
| 2026-04-16 10:53 | 42.38868 | 19.58500 | 37078 ft | 438 kts | 136° |
| 2026-04-16 10:54 | 42.34539 | 19.64289 | 37082 ft | 438 kts | 136° |
| 2026-04-16 10:54 | 42.30207 | 19.70064 | 37095 ft | 437 kts | 136° |
| 2026-04-16 10:55 | 42.25872 | 19.75831 | 37098 ft | 437 kts | 136° |
| 2026-04-16 10:55 | 42.21568 | 19.81549 | 37103 ft | 437 kts | 137° |
| 2026-04-16 10:56 | 42.17230 | 19.87290 | 37105 ft | 437 kts | 136° |
| 2026-04-16 10:56 | 42.12886 | 19.93026 | 37093 ft | 437 kts | 136° |
| 2026-04-16 10:57 | 42.08546 | 19.98752 | 37108 ft | 437 kts | 137° |
| 2026-04-16 10:57 | 42.04203 | 20.04471 | 37103 ft | 437 kts | 136° |
| 2026-04-16 10:58 | 41.99853 | 20.10186 | 37119 ft | 437 kts | 137° |
| 2026-04-16 10:58 | 41.95505 | 20.15894 | 37118 ft | 437 kts | 137° |
| 2026-04-16 10:59 | 41.91153 | 20.21594 | 37123 ft | 437 kts | 137° |
| 2026-04-16 10:59 | 41.86793 | 20.27281 | 37124 ft | 437 kts | 137° |
| 2026-04-16 11:00 | 41.82435 | 20.32963 | 37112 ft | 437 kts | 137° |
| 2026-04-16 11:00 | 41.78080 | 20.38637 | 37120 ft | 437 kts | 137° |
| 2026-04-16 11:01 | 41.73722 | 20.44293 | 37128 ft | 436 kts | 137° |
| 2026-04-16 11:01 | 41.70107 | 20.48978 | 37118 ft | 435 kts | 137° |
| 2026-04-16 11:02 | 41.65652 | 20.54431 | 37115 ft | 433 kts | 142° |
| 2026-04-16 11:02 | 41.60158 | 20.60235 | 37103 ft | 433 kts | 142° |
| 2026-04-16 11:03 | 41.56199 | 20.64412 | 37108 ft | 433 kts | 143° |
| 2026-04-16 11:04 | 41.49111 | 20.71884 | 37110 ft | 432 kts | 142° |
| 2026-04-16 11:04 | 41.44395 | 20.76841 | 37131 ft | 431 kts | 142° |
| 2026-04-16 11:05 | 41.39684 | 20.81769 | 37128 ft | 430 kts | 143° |
| 2026-04-16 11:05 | 41.34979 | 20.86685 | 37132 ft | 430 kts | 143° |
| 2026-04-16 11:06 | 41.30277 | 20.91595 | 37136 ft | 430 kts | 143° |
| 2026-04-16 11:06 | 41.25576 | 20.96499 | 37135 ft | 429 kts | 142° |
| 2026-04-16 11:07 | 41.20916 | 21.01356 | 37136 ft | 428 kts | 142° |
| 2026-04-16 11:07 | 41.16228 | 21.06231 | 37131 ft | 428 kts | 143° |
| 2026-04-16 11:08 | 41.11539 | 21.11091 | 37122 ft | 427 kts | 143° |
| 2026-04-16 11:08 | 41.06849 | 21.15931 | 37112 ft | 427 kts | 143° |
| 2026-04-16 11:09 | 41.02162 | 21.20774 | 37111 ft | 427 kts | 143° |
| 2026-04-16 11:09 | 40.97474 | 21.25603 | 37110 ft | 427 kts | 143° |
| 2026-04-16 11:10 | 40.92791 | 21.30413 | 37118 ft | 426 kts | 143° |
| 2026-04-16 11:10 | 40.88136 | 21.35255 | 37116 ft | 426 kts | 139° |
| 2026-04-16 11:11 | 40.84115 | 21.41009 | 37113 ft | 427 kts | 132° |
| 2026-04-16 11:11 | 40.80213 | 21.46907 | 37103 ft | 427 kts | 132° |
| 2026-04-16 11:12 | 40.76298 | 21.52793 | 37104 ft | 427 kts | 132° |
| 2026-04-16 11:12 | 40.72382 | 21.58670 | 37104 ft | 427 kts | 132° |
| 2026-04-16 11:13 | 40.68462 | 21.64546 | 37099 ft | 427 kts | 132° |
| 2026-04-16 11:13 | 40.64539 | 21.70417 | 37098 ft | 427 kts | 133° |
| 2026-04-16 11:14 | 40.60615 | 21.76276 | 37103 ft | 427 kts | 133° |
| 2026-04-16 11:14 | 40.56691 | 21.82139 | 37103 ft | 427 kts | 133° |
| 2026-04-16 11:15 | 40.52764 | 21.87989 | 37111 ft | 427 kts | 133° |
| 2026-04-16 11:15 | 40.48827 | 21.93828 | 37117 ft | 427 kts | 133° |
| 2026-04-16 11:16 | 40.44887 | 21.99658 | 37129 ft | 426 kts | 133° |
| 2026-04-16 11:16 | 40.40957 | 22.05475 | 37133 ft | 426 kts | 133° |
| 2026-04-16 11:17 | 40.37028 | 22.11281 | 37134 ft | 425 kts | 133° |
| 2026-04-16 11:17 | 40.33102 | 22.17070 | 37116 ft | 425 kts | 133° |
| 2026-04-16 11:18 | 40.29174 | 22.22852 | 37113 ft | 425 kts | 133° |
| 2026-04-16 11:18 | 40.25246 | 22.28621 | 37107 ft | 425 kts | 133° |
| 2026-04-16 11:19 | 40.21309 | 22.34388 | 37115 ft | 425 kts | 133° |
| 2026-04-16 11:19 | 40.17371 | 22.40140 | 37119 ft | 424 kts | 133° |
| 2026-04-16 11:20 | 40.13434 | 22.45884 | 37122 ft | 424 kts | 133° |
| 2026-04-16 11:20 | 40.09503 | 22.51608 | 37123 ft | 423 kts | 133° |
| 2026-04-16 11:21 | 40.05572 | 22.57330 | 37124 ft | 423 kts | 133° |
| 2026-04-16 11:21 | 40.01641 | 22.63039 | 37121 ft | 423 kts | 133° |
| 2026-04-16 11:22 | 39.97706 | 22.68745 | 37115 ft | 423 kts | 133° |
| 2026-04-16 11:22 | 39.93766 | 22.74436 | 37112 ft | 423 kts | 133° |
| 2026-04-16 11:23 | 39.89821 | 22.80124 | 37108 ft | 423 kts | 133° |
| 2026-04-16 11:23 | 39.85879 | 22.85815 | 37102 ft | 423 kts | 133° |
| 2026-04-16 11:24 | 39.81943 | 22.91494 | 37106 ft | 422 kts | 133° |
| 2026-04-16 11:24 | 39.77995 | 22.97153 | 37105 ft | 422 kts | 133° |
| 2026-04-16 11:25 | 39.74045 | 23.02803 | 37104 ft | 423 kts | 133° |
| 2026-04-16 11:25 | 39.70095 | 23.08461 | 37106 ft | 423 kts | 133° |
| 2026-04-16 11:26 | 39.66144 | 23.14108 | 37100 ft | 423 kts | 134° |
| 2026-04-16 11:26 | 39.62179 | 23.19762 | 37094 ft | 424 kts | 134° |
| 2026-04-16 11:27 | 39.58205 | 23.25413 | 37098 ft | 424 kts | 134° |
| 2026-04-16 11:27 | 39.54223 | 23.31062 | 37104 ft | 424 kts | 134° |
| 2026-04-16 11:28 | 39.50221 | 23.36742 | 37106 ft | 424 kts | 134° |
| 2026-04-16 11:28 | 39.46270 | 23.42340 | 37108 ft | 424 kts | 134° |
| 2026-04-16 11:29 | 39.42283 | 23.47965 | 37095 ft | 424 kts | 134° |
| 2026-04-16 11:29 | 39.38288 | 23.53589 | 37091 ft | 425 kts | 134° |
| 2026-04-16 11:30 | 39.34283 | 23.59217 | 37078 ft | 425 kts | 134° |
| 2026-04-16 11:30 | 39.30274 | 23.64837 | 37081 ft | 426 kts | 134° |
| 2026-04-16 11:31 | 39.26265 | 23.70462 | 37088 ft | 425 kts | 134° |
| 2026-04-16 11:31 | 39.22258 | 23.76075 | 37087 ft | 425 kts | 134° |
| 2026-04-16 11:32 | 39.18244 | 23.81691 | 37082 ft | 426 kts | 134° |
| 2026-04-16 11:32 | 39.14228 | 23.87304 | 37084 ft | 426 kts | 134° |
| 2026-04-16 11:33 | 39.10198 | 23.92910 | 37081 ft | 426 kts | 134° |
| 2026-04-16 11:33 | 39.06163 | 23.98503 | 37084 ft | 426 kts | 134° |
| 2026-04-16 11:34 | 39.02129 | 24.04101 | 37077 ft | 426 kts | 134° |
| 2026-04-16 11:34 | 38.98091 | 24.09685 | 37073 ft | 426 kts | 135° |
| 2026-04-16 11:35 | 38.94050 | 24.15259 | 37078 ft | 426 kts | 135° |
| 2026-04-16 11:35 | 38.90021 | 24.20828 | 37080 ft | 425 kts | 135° |
| 2026-04-16 11:36 | 38.85994 | 24.26391 | 37070 ft | 425 kts | 135° |
| 2026-04-16 11:36 | 38.81961 | 24.31933 | 37067 ft | 425 kts | 135° |
| 2026-04-16 11:37 | 38.77918 | 24.37465 | 37063 ft | 425 kts | 135° |
| 2026-04-16 11:37 | 38.73883 | 24.42992 | 37055 ft | 425 kts | 135° |
| 2026-04-16 11:38 | 38.69846 | 24.48518 | 37056 ft | 425 kts | 135° |
| 2026-04-16 11:38 | 38.65803 | 24.54025 | 37056 ft | 424 kts | 136° |
| 2026-04-16 11:39 | 38.61765 | 24.59526 | 37060 ft | 424 kts | 136° |
| 2026-04-16 11:39 | 38.57724 | 24.65017 | 37053 ft | 424 kts | 136° |
| 2026-04-16 11:40 | 38.53684 | 24.70497 | 37053 ft | 424 kts | 136° |
| 2026-04-16 11:40 | 38.49642 | 24.75977 | 37053 ft | 424 kts | 136° |
| 2026-04-16 11:41 | 38.45602 | 24.81448 | 37044 ft | 424 kts | 136° |
| 2026-04-16 11:41 | 38.41556 | 24.86914 | 37043 ft | 424 kts | 136° |
| 2026-04-16 11:42 | 38.37505 | 24.92373 | 37044 ft | 424 kts | 136° |
| 2026-04-16 11:42 | 38.33456 | 24.97823 | 37046 ft | 424 kts | 136° |
| 2026-04-16 11:43 | 38.29399 | 25.03259 | 37033 ft | 424 kts | 136° |
| 2026-04-16 11:43 | 38.25341 | 25.08702 | 37038 ft | 424 kts | 136° |
| 2026-04-16 11:44 | 38.21964 | 25.13240 | 37047 ft | 424 kts | 136° |
| 2026-04-16 11:44 | 38.17901 | 25.18683 | 37037 ft | 424 kts | 136° |
| 2026-04-16 11:45 | 38.13697 | 25.24278 | 37029 ft | 423 kts | 136° |
| 2026-04-16 11:45 | 38.09763 | 25.29502 | 37020 ft | 423 kts | 136° |
| 2026-04-16 11:46 | 38.05702 | 25.34906 | 37016 ft | 423 kts | 136° |
| 2026-04-16 11:46 | 38.01641 | 25.40301 | 37020 ft | 422 kts | 137° |
| 2026-04-16 11:47 | 37.97585 | 25.45684 | 37030 ft | 422 kts | 137° |
| 2026-04-16 11:47 | 37.93525 | 25.51055 | 37032 ft | 422 kts | 136° |
| 2026-04-16 11:48 | 37.89466 | 25.56413 | 37024 ft | 421 kts | 137° |
| 2026-04-16 11:48 | 37.85410 | 25.61759 | 37023 ft | 421 kts | 137° |
| 2026-04-16 11:49 | 37.81354 | 25.67098 | 36998 ft | 421 kts | 137° |
| 2026-04-16 11:49 | 37.77291 | 25.72430 | 36994 ft | 421 kts | 137° |
| 2026-04-16 11:50 | 37.73223 | 25.77771 | 36987 ft | 422 kts | 137° |
| 2026-04-16 11:50 | 37.69146 | 25.83109 | 36989 ft | 422 kts | 137° |
| 2026-04-16 11:51 | 37.65066 | 25.88444 | 36989 ft | 423 kts | 137° |
| 2026-04-16 11:51 | 37.60975 | 25.93778 | 36991 ft | 423 kts | 137° |
| 2026-04-16 11:52 | 37.56886 | 25.99112 | 36980 ft | 423 kts | 137° |
| 2026-04-16 11:52 | 37.52792 | 26.04452 | 36975 ft | 424 kts | 137° |
| 2026-04-16 11:53 | 37.48690 | 26.09780 | 36978 ft | 424 kts | 137° |
| 2026-04-16 11:53 | 37.44580 | 26.15097 | 36967 ft | 424 kts | 137° |
| 2026-04-16 11:54 | 37.40476 | 26.20413 | 36972 ft | 424 kts | 137° |
| 2026-04-16 11:54 | 37.36372 | 26.25728 | 36976 ft | 423 kts | 137° |
| 2026-04-16 11:55 | 37.32123 | 26.31193 | 36957 ft | 423 kts | 137° |
| 2026-04-16 11:55 | 37.28139 | 26.36311 | 36961 ft | 424 kts | 137° |
| 2026-04-16 11:56 | 37.24021 | 26.41605 | 36957 ft | 424 kts | 137° |
| 2026-04-16 11:56 | 37.19904 | 26.46904 | 36953 ft | 424 kts | 137° |
| 2026-04-16 11:57 | 37.15783 | 26.52194 | 36953 ft | 424 kts | 137° |
| 2026-04-16 11:57 | 37.11659 | 26.57473 | 36948 ft | 424 kts | 138° |
| 2026-04-16 11:58 | 37.07530 | 26.62739 | 36939 ft | 424 kts | 138° |
| 2026-04-16 11:58 | 37.03396 | 26.68002 | 36945 ft | 424 kts | 138° |
| 2026-04-16 11:59 | 36.99257 | 26.73271 | 36945 ft | 424 kts | 138° |
| 2026-04-16 11:59 | 36.95120 | 26.78535 | 36938 ft | 424 kts | 138° |
| 2026-04-16 12:00 | 36.90979 | 26.83794 | 36932 ft | 424 kts | 138° |
| 2026-04-16 12:00 | 36.86832 | 26.89039 | 36912 ft | 425 kts | 139° |
| 2026-04-16 12:01 | 36.82672 | 26.94289 | 36905 ft | 426 kts | 139° |
| 2026-04-16 12:01 | 36.78509 | 26.99551 | 36922 ft | 426 kts | 139° |
| 2026-04-16 12:02 | 36.72250 | 27.07441 | 36927 ft | 427 kts | 139° |
| 2026-04-16 12:02 | 36.68227 | 27.12893 | 36928 ft | 431 kts | 129° |
| 2026-04-16 12:03 | 36.65453 | 27.19584 | 36924 ft | 438 kts | 118° |
| 2026-04-16 12:03 | 36.63024 | 27.26562 | 36907 ft | 440 kts | 118° |
| 2026-04-16 12:04 | 36.60562 | 27.33546 | 36905 ft | 441 kts | 118° |
| 2026-04-16 12:04 | 36.58094 | 27.40549 | 36918 ft | 442 kts | 118° |
| 2026-04-16 12:05 | 36.55623 | 27.47559 | 36918 ft | 443 kts | 118° |
| 2026-04-16 12:05 | 36.53142 | 27.54572 | 36908 ft | 444 kts | 118° |
| 2026-04-16 12:06 | 36.50650 | 27.61594 | 36913 ft | 445 kts | 118° |
| 2026-04-16 12:06 | 36.48146 | 27.68627 | 36916 ft | 445 kts | 118° |
| 2026-04-16 12:07 | 36.45643 | 27.75664 | 36917 ft | 446 kts | 118° |
| 2026-04-16 12:07 | 36.43139 | 27.82709 | 36919 ft | 446 kts | 118° |
| 2026-04-16 12:08 | 36.40628 | 27.89747 | 36918 ft | 446 kts | 118° |
| 2026-04-16 12:08 | 36.38101 | 27.96779 | 36922 ft | 446 kts | 118° |
| 2026-04-16 12:09 | 36.35571 | 28.03804 | 36924 ft | 446 kts | 118° |
| 2026-04-16 12:09 | 36.32481 | 28.10362 | 36910 ft | 437 kts | 134° |
| 2026-04-16 12:10 | 36.28523 | 28.16056 | 36891 ft | 436 kts | 136° |
| 2026-04-16 12:10 | 36.24545 | 28.21742 | 36900 ft | 437 kts | 136° |
| 2026-04-16 12:11 | 36.20567 | 28.27433 | 36901 ft | 437 kts | 136° |
| 2026-04-16 12:11 | 36.16586 | 28.33120 | 36905 ft | 437 kts | 136° |
| 2026-04-16 12:12 | 36.12599 | 28.38807 | 36894 ft | 437 kts | 136° |
| 2026-04-16 12:12 | 36.08606 | 28.44494 | 36893 ft | 439 kts | 136° |
| 2026-04-16 12:13 | 36.04597 | 28.50189 | 36896 ft | 439 kts | 136° |
| 2026-04-16 12:13 | 36.00581 | 28.55879 | 36898 ft | 440 kts | 136° |
| 2026-04-16 12:14 | 35.96562 | 28.61566 | 36892 ft | 440 kts | 136° |
| 2026-04-16 12:14 | 35.92534 | 28.67252 | 36880 ft | 440 kts | 136° |
| 2026-04-16 12:15 | 35.88500 | 28.72940 | 36879 ft | 441 kts | 136° |
| 2026-04-16 12:15 | 35.84481 | 28.78605 | 36879 ft | 442 kts | 136° |
| 2026-04-16 12:16 | 35.80431 | 28.84311 | 36884 ft | 443 kts | 136° |
| 2026-04-16 12:16 | 35.76372 | 28.90010 | 36883 ft | 443 kts | 136° |
| 2026-04-16 12:17 | 35.72303 | 28.95708 | 36887 ft | 443 kts | 136° |
| 2026-04-16 12:17 | 35.68232 | 29.01408 | 36870 ft | 444 kts | 136° |
| 2026-04-16 12:18 | 35.64146 | 29.07116 | 36869 ft | 445 kts | 136° |
| 2026-04-16 12:18 | 35.60049 | 29.12821 | 36860 ft | 445 kts | 137° |
| 2026-04-16 12:19 | 35.55946 | 29.18532 | 36870 ft | 446 kts | 137° |
| 2026-04-16 12:19 | 35.51844 | 29.24244 | 36874 ft | 446 kts | 137° |
| 2026-04-16 12:20 | 35.47705 | 29.29990 | 36851 ft | 447 kts | 137° |
| 2026-04-16 12:20 | 35.43580 | 29.35697 | 36859 ft | 447 kts | 137° |
| 2026-04-16 12:21 | 35.39449 | 29.41401 | 36858 ft | 448 kts | 137° |
| 2026-04-16 12:21 | 35.35341 | 29.47070 | 36862 ft | 448 kts | 137° |
| 2026-04-16 12:22 | 35.31205 | 29.52773 | 36860 ft | 448 kts | 137° |
| 2026-04-16 12:22 | 35.27059 | 29.58470 | 36847 ft | 448 kts | 137° |
| 2026-04-16 12:23 | 35.22905 | 29.64158 | 36846 ft | 448 kts | 138° |
| 2026-04-16 12:23 | 35.18752 | 29.69854 | 36864 ft | 449 kts | 138° |
| 2026-04-16 12:24 | 35.14604 | 29.75551 | 36865 ft | 449 kts | 138° |
| 2026-04-16 12:24 | 35.10441 | 29.81234 | 36861 ft | 449 kts | 138° |
| 2026-04-16 12:25 | 35.06277 | 29.86911 | 36849 ft | 449 kts | 138° |
| 2026-04-16 12:25 | 35.02782 | 29.91676 | 36847 ft | 450 kts | 138° |
| 2026-04-16 12:26 | 34.98909 | 29.97719 | 36839 ft | 460 kts | 124° |
| 2026-04-16 12:26 | 34.96755 | 30.05163 | 36522 ft | 475 kts | 102° |
| 2026-04-16 12:27 | 34.96536 | 30.09192 | 36211 ft | 478 kts | 94° |
| 2026-04-16 12:27 | 34.96497 | 30.13267 | 35311 ft | 483 kts | 94° |
| 2026-04-16 12:27 | 34.96459 | 30.17369 | 34605 ft | 484 kts | 94° |
| 2026-04-16 12:27 | 34.96416 | 30.21449 | 34066 ft | 480 kts | 94° |
| 2026-04-16 12:28 | 34.96372 | 30.25504 | 33431 ft | 477 kts | 94° |
| 2026-04-16 12:28 | 34.96324 | 30.29526 | 32852 ft | 472 kts | 94° |
| 2026-04-16 12:28 | 34.96271 | 30.33506 | 32275 ft | 467 kts | 94° |
| 2026-04-16 12:28 | 34.96217 | 30.37444 | 31701 ft | 463 kts | 93° |
| 2026-04-16 12:29 | 34.96159 | 30.41348 | 31150 ft | 458 kts | 93° |
| 2026-04-16 12:29 | 34.96098 | 30.45216 | 30597 ft | 454 kts | 93° |
| 2026-04-16 12:29 | 34.96034 | 30.49049 | 30044 ft | 451 kts | 92° |
| 2026-04-16 12:29 | 34.95970 | 30.52857 | 29454 ft | 447 kts | 92° |
| 2026-04-16 12:30 | 34.95912 | 30.56624 | 28934 ft | 441 kts | 92° |
| 2026-04-16 12:30 | 34.95856 | 30.60337 | 28424 ft | 436 kts | 92° |
| 2026-04-16 12:30 | 34.95800 | 30.64006 | 27928 ft | 430 kts | 92° |
| 2026-04-16 12:30 | 34.95745 | 30.67631 | 27443 ft | 425 kts | 92° |
| 2026-04-16 12:31 | 34.95686 | 30.71208 | 26979 ft | 419 kts | 92° |
| 2026-04-16 12:31 | 34.95625 | 30.74735 | 26523 ft | 414 kts | 92° |
| 2026-04-16 12:31 | 34.95566 | 30.78180 | 26071 ft | 409 kts | 92° |
| 2026-04-16 12:31 | 34.95503 | 30.81675 | 25614 ft | 405 kts | 93° |
| 2026-04-16 12:32 | 34.95440 | 30.85092 | 25147 ft | 401 kts | 93° |
| 2026-04-16 12:32 | 34.95379 | 30.88432 | 24690 ft | 398 kts | 92° |
| 2026-04-16 12:32 | 34.95318 | 30.91794 | 24202 ft | 395 kts | 93° |
| 2026-04-16 12:32 | 34.95259 | 30.95132 | 23725 ft | 393 kts | 92° |
| 2026-04-16 12:33 | 34.95199 | 30.98457 | 23183 ft | 392 kts | 93° |
| 2026-04-16 12:33 | 34.95138 | 31.01763 | 22675 ft | 388 kts | 93° |
| 2026-04-16 12:33 | 34.95073 | 31.05038 | 22184 ft | 385 kts | 93° |
| 2026-04-16 12:33 | 34.95010 | 31.08292 | 21702 ft | 383 kts | 93° |
| 2026-04-16 12:34 | 34.94949 | 31.11569 | 21219 ft | 380 kts | 93° |
| 2026-04-16 12:34 | 34.94888 | 31.14736 | 20747 ft | 378 kts | 92° |
| 2026-04-16 12:34 | 34.94823 | 31.17929 | 20285 ft | 376 kts | 93° |
| 2026-04-16 12:34 | 34.94754 | 31.21147 | 19804 ft | 374 kts | 93° |
| 2026-04-16 12:35 | 34.94686 | 31.24266 | 19348 ft | 372 kts | 93° |
| 2026-04-16 12:35 | 34.94616 | 31.27416 | 18887 ft | 371 kts | 93° |
| 2026-04-16 12:35 | 34.94550 | 31.30556 | 18432 ft | 370 kts | 93° |
| 2026-04-16 12:35 | 34.94484 | 31.33688 | 17954 ft | 369 kts | 92° |
| 2026-04-16 12:36 | 34.94418 | 31.36804 | 17481 ft | 367 kts | 92° |
| 2026-04-16 12:36 | 34.94351 | 31.39902 | 17034 ft | 364 kts | 92° |
| 2026-04-16 12:36 | 34.94281 | 31.42969 | 16593 ft | 361 kts | 92° |
| 2026-04-16 12:36 | 34.94208 | 31.46015 | 16160 ft | 358 kts | 92° |
| 2026-04-16 12:37 | 34.94136 | 31.49037 | 15724 ft | 355 kts | 92° |
| 2026-04-16 12:37 | 34.94064 | 31.52034 | 15306 ft | 352 kts | 92° |
| 2026-04-16 12:37 | 34.93994 | 31.55000 | 14899 ft | 349 kts | 92° |
| 2026-04-16 12:37 | 34.93927 | 31.57939 | 14562 ft | 344 kts | 91° |
| 2026-04-16 12:38 | 34.93856 | 31.60859 | 14115 ft | 343 kts | 91° |
| 2026-04-16 12:38 | 34.93786 | 31.63753 | 13715 ft | 341 kts | 91° |
| 2026-04-16 12:38 | 34.93717 | 31.66613 | 13389 ft | 335 kts | 91° |
| 2026-04-16 12:38 | 34.93647 | 31.69449 | 12878 ft | 335 kts | 91° |
| 2026-04-16 12:39 | 34.93579 | 31.72269 | 12420 ft | 333 kts | 90° |
| 2026-04-16 12:39 | 34.93511 | 31.75060 | 12110 ft | 326 kts | 90° |
| 2026-04-16 12:39 | 34.93440 | 31.77786 | 11925 ft | 316 kts | 90° |
| 2026-04-16 12:39 | 34.93370 | 31.80421 | 11763 ft | 307 kts | 90° |
| 2026-04-16 12:40 | 34.93301 | 31.82994 | 11474 ft | 302 kts | 90° |
| 2026-04-16 12:40 | 34.93235 | 31.85536 | 11156 ft | 298 kts | 90° |
| 2026-04-16 12:40 | 34.93169 | 31.88059 | 10912 ft | 298 kts | 90° |
| 2026-04-16 12:40 | 34.93104 | 31.90590 | 10696 ft | 297 kts | 90° |
| 2026-04-16 12:41 | 34.93037 | 31.93099 | 10481 ft | 295 kts | 89° |
| 2026-04-16 12:41 | 34.92969 | 31.95591 | 10268 ft | 294 kts | 90° |
| 2026-04-16 12:41 | 34.92900 | 31.98084 | 10054 ft | 295 kts | 90° |
| 2026-04-16 12:41 | 34.92829 | 32.00571 | 9843 ft | 293 kts | 89° |
| 2026-04-16 12:42 | 34.92759 | 32.03015 | 9622 ft | 285 kts | 90° |
| 2026-04-16 12:42 | 34.92690 | 32.05409 | 9391 ft | 281 kts | 89° |
| 2026-04-16 12:42 | 34.92625 | 32.07783 | 9156 ft | 279 kts | 90° |
| 2026-04-16 12:42 | 34.92533 | 32.10164 | 8924 ft | 283 kts | 96° |
| 2026-04-16 12:43 | 34.92087 | 32.12507 | 8700 ft | 285 kts | 109° |
| 2026-04-16 12:43 | 34.91211 | 32.14673 | 8472 ft | 286 kts | 122° |
| 2026-04-16 12:43 | 34.90092 | 32.16674 | 8249 ft | 286 kts | 123° |
| 2026-04-16 12:43 | 34.88976 | 32.18674 | 8025 ft | 285 kts | 123° |
| 2026-04-16 12:44 | 34.87864 | 32.20669 | 7795 ft | 284 kts | 123° |
| 2026-04-16 12:44 | 34.86758 | 32.22658 | 7577 ft | 283 kts | 123° |
| 2026-04-16 12:44 | 34.85652 | 32.24640 | 7361 ft | 282 kts | 123° |
| 2026-04-16 12:44 | 34.84538 | 32.26608 | 7167 ft | 282 kts | 123° |
| 2026-04-16 12:45 | 34.83425 | 32.28571 | 6975 ft | 281 kts | 123° |
| 2026-04-16 12:45 | 34.82314 | 32.30526 | 6779 ft | 281 kts | 123° |
| 2026-04-16 12:45 | 34.81204 | 32.32476 | 6584 ft | 280 kts | 123° |
| 2026-04-16 12:45 | 34.80096 | 32.34422 | 6406 ft | 279 kts | 123° |
| 2026-04-16 12:46 | 34.78996 | 32.36362 | 6215 ft | 278 kts | 123° |
| 2026-04-16 12:46 | 34.77903 | 32.38294 | 6014 ft | 277 kts | 123° |
| 2026-04-16 12:46 | 34.76813 | 32.40217 | 5813 ft | 276 kts | 123° |
| 2026-04-16 12:46 | 34.75726 | 32.42134 | 5618 ft | 275 kts | 123° |
| 2026-04-16 12:47 | 34.74641 | 32.44042 | 5419 ft | 274 kts | 123° |
| 2026-04-16 12:47 | 34.73560 | 32.45941 | 5223 ft | 273 kts | 123° |
| 2026-04-16 12:47 | 34.72481 | 32.47836 | 5030 ft | 272 kts | 123° |
| 2026-04-16 12:47 | 34.71404 | 32.49725 | 4836 ft | 271 kts | 123° |
| 2026-04-16 12:48 | 34.70238 | 32.51529 | 4642 ft | 271 kts | 129° |
| 2026-04-16 12:48 | 34.68989 | 32.53243 | 4445 ft | 271 kts | 130° |
| 2026-04-16 12:48 | 34.67734 | 32.54947 | 4232 ft | 270 kts | 130° |
| 2026-04-16 12:48 | 34.66482 | 32.56648 | 4051 ft | 270 kts | 130° |
| 2026-04-16 12:49 | 34.65236 | 32.58345 | 3853 ft | 269 kts | 130° |
| 2026-04-16 12:49 | 34.63993 | 32.60038 | 3663 ft | 268 kts | 130° |
| 2026-04-16 12:49 | 34.62753 | 32.61725 | 3473 ft | 267 kts | 130° |
| 2026-04-16 12:49 | 34.61512 | 32.63372 | 3282 ft | 261 kts | 130° |
| 2026-04-16 12:50 | 34.60304 | 32.64996 | 3091 ft | 258 kts | 123° |
| 2026-04-16 12:50 | 34.59660 | 32.66956 | 2990 ft | 245 kts | 94° |
| 2026-04-16 12:50 | 34.59934 | 32.68889 | 2971 ft | 226 kts | 63° |
| 2026-04-16 12:50 | 34.60971 | 32.70215 | 2974 ft | 215 kts | 30° |
| 2026-04-16 12:51 | 34.62389 | 32.70682 | 2973 ft | 211 kts | 5° |
| 2026-04-16 12:51 | 34.63798 | 32.70419 | 2979 ft | 202 kts | 343° |
| 2026-04-16 12:51 | 34.64967 | 32.69545 | 3005 ft | 198 kts | 322° |
| 2026-04-16 12:51 | 34.65780 | 32.68203 | 2962 ft | 199 kts | 299° |
| 2026-04-16 12:52 | 34.66277 | 32.66631 | 2784 ft | 199 kts | 294° |
| 2026-04-16 12:52 | 34.66758 | 32.65050 | 2553 ft | 201 kts | 294° |
| 2026-04-16 12:52 | 34.67243 | 32.63462 | 2295 ft | 200 kts | 295° |
| 2026-04-16 12:52 | 34.67718 | 32.61907 | 2042 ft | 194 kts | 294° |
| 2026-04-16 12:53 | 34.68182 | 32.60390 | 1802 ft | 188 kts | 290° |
| 2026-04-16 12:53 | 34.68633 | 32.58916 | 1564 ft | 185 kts | 290° |
| 2026-04-16 12:53 | 34.69078 | 32.57458 | 1338 ft | 180 kts | 290° |
| 2026-04-16 12:53 | 34.69495 | 32.56096 | 1108 ft | 165 kts | 289° |
| 2026-04-16 12:54 | 34.69877 | 32.54845 | 910 ft | 152 kts | 289° |
| 2026-04-16 12:54 | 34.70240 | 32.53655 | 725 ft | 148 kts | 289° |
| 2026-04-16 12:54 | 34.70594 | 32.52492 | 525 ft | 146 kts | 288° |
| 2026-04-16 12:54 | 34.70943 | 32.51336 | 323 ft | 145 kts | 289° |
| 2026-04-16 12:55 | 34.71293 | 32.50203 | 128 ft | 141 kts | 288° |
| 2026-04-16 12:55 | 34.71626 | 32.49112 | 50 ft | 130 kts | 290° |
| 2026-04-16 12:55 | 34.71881 | 32.48276 | 45 ft | 80 kts | 290° |
| 2026-04-16 12:55 | 34.71976 | 32.47993 | 46 ft | 14 kts | 305° |
| 2026-04-16 12:56 | 34.71972 | 32.47952 | 46 ft | 4 kts | 150° |
| 2026-04-16 12:56 | 34.71952 | 32.48035 | 46 ft | 17 kts | 106° |
| 2026-04-16 12:56 | 34.71907 | 32.48191 | 44 ft | 21 kts | 110° |
| 2026-04-16 12:56 | 34.71854 | 32.48366 | 46 ft | 23 kts | 110° |
| 2026-04-16 12:57 | 34.71765 | 32.48400 | 46 ft | 13 kts | 199° |
| 2026-04-16 12:57 | 34.71674 | 32.48397 | 46 ft | 14 kts | 134° |
| 2026-04-16 12:57 | 34.71635 | 32.48510 | 46 ft | 14 kts | 110° |
| 2026-04-16 12:57 | 34.71601 | 32.48623 | 46 ft | 14 kts | 110° |
| 2026-04-16 12:58 | 34.71569 | 32.48730 | 45 ft | 13 kts | 111° |
| 2026-04-16 12:58 | 34.71537 | 32.48829 | 43 ft | 12 kts | 111° |
| 2026-04-16 12:58 | 34.71486 | 32.48873 | 46 ft | 12 kts | 217° |
| 2026-04-16 12:58 | 34.71440 | 32.48762 | 46 ft | 16 kts | 245° |
| 2026-04-16 12:59 | 34.71395 | 32.48643 | 43 ft | 9 kts | 242° |
| 2026-04-16 12:59 | 34.71347 | 32.48643 | 45 ft | 7 kts | 153° |
| 2026-04-16 12:59 | 34.71310 | 32.48664 | 46 ft | 1 kts | 154° |
| 2026-04-16 13:00 | 34.71306 | 32.48667 | 46 ft | 0 kts | 154° |